sensor_id;sensor_type;location;lat;lon;timestamp;pressure;altitude;pressure_sealevel;temperature;humidity
6198;BME280;3132;42.622;23.328;2023-05-17T00:01:26;92270.91;;;13.56;100.00
6198;BME280;3132;42.622;23.328;2023-05-17T00:03:51;92273.22;;;13.58;100.00
6198;BME280;3132;42.622;23.328;2023-05-17T00:06:20;92273.03;;;13.54;100.00
6198;BME280;3132;42.622;23.328;2023-05-17T00:08:46;92264.06;;;13.38;100.00
6198;BME280;3132;42.622;23.328;2023-05-17T00:11:11;92263.22;;;13.29;100.00
6198;BME280;3132;42.622;23.328;2023-05-17T00:13:36;92259.56;;;13.30;100.00
6198;BME280;3132;42.622;23.328;2023-05-17T00:16:03;92261.75;;;13.06;100.00
6198;BME280;3132;42.622;23.328;2023-05-17T00:18:29;92253.94;;;13.15;100.00
6198;BME280;3132;42.622;23.328;2023-05-17T00:20:54;92263.34;;;13.16;100.00
6198;BME280;3132;42.622;23.328;2023-05-17T00:23:19;92236.81;;;13.09;100.00
6198;BME280;3132;42.622;23.328;2023-05-17T00:25:45;92215.44;;;12.93;100.00
6198;BME280;3132;42.622;23.328;2023-05-17T00:28:11;92259.81;;;13.20;100.00
6198;BME280;3132;42.622;23.328;2023-05-17T00:30:36;92255.66;;;13.19;100.00
6198;BME280;3132;42.622;23.328;2023-05-17T00:33:01;92261.19;;;12.87;100.00
6198;BME280;3132;42.622;23.328;2023-05-17T00:35:27;92259.44;;;13.05;100.00
6198;BME280;3132;42.622;23.328;2023-05-17T00:37:52;92253.44;;;13.04;100.00
6198;BME280;3132;42.622;23.328;2023-05-17T00:40:18;92246.28;;;12.96;100.00
6198;BME280;3132;42.622;23.328;2023-05-17T00:42:43;92262.97;;;13.00;100.00
6198;BME280;3132;42.622;23.328;2023-05-17T00:45:09;92263.16;;;12.81;100.00
6198;BME280;3132;42.622;23.328;2023-05-17T00:47:35;92260.19;;;12.74;100.00
6198;BME280;3132;42.622;23.328;2023-05-17T00:50:01;92258.63;;;12.73;100.00
6198;BME280;3132;42.622;23.328;2023-05-17T00:52:27;92274.88;;;12.84;100.00
6198;BME280;3132;42.622;23.328;2023-05-17T00:54:52;92266.38;;;12.78;100.00
6198;BME280;3132;42.622;23.328;2023-05-17T00:57:17;92264.66;;;12.74;100.00
6198;BME280;3132;42.622;23.328;2023-05-17T00:59:43;92271.59;;;12.78;100.00
6198;BME280;3132;42.622;23.328;2023-05-17T01:02:10;92276.31;;;12.68;100.00
6198;BME280;3132;42.622;23.328;2023-05-17T01:04:36;92263.75;;;12.56;100.00
6198;BME280;3132;42.622;23.328;2023-05-17T01:07:02;92275.06;;;12.65;100.00
6198;BME280;3132;42.622;23.328;2023-05-17T01:09:28;92275.78;;;12.57;100.00
6198;BME280;3132;42.622;23.328;2023-05-17T01:17:29;92262.03;;;12.52;100.00
6198;BME280;3132;42.622;23.328;2023-05-17T01:20:28;92266.75;;;12.41;100.00
6198;BME280;3132;42.622;23.328;2023-05-17T01:23:11;92257.75;;;12.34;100.00
6198;BME280;3132;42.622;23.328;2023-05-17T01:28:16;92235.41;;;12.28;100.00
6198;BME280;3132;42.622;23.328;2023-05-17T01:30:44;92270.78;;;12.47;100.00
6198;BME280;3132;42.622;23.328;2023-05-17T01:33:11;92277.03;;;12.38;100.00
6198;BME280;3132;42.622;23.328;2023-05-17T01:35:36;92239.66;;;12.24;100.00
6198;BME280;3132;42.622;23.328;2023-05-17T01:38:02;92263.22;;;12.46;100.00
6198;BME280;3132;42.622;23.328;2023-05-17T01:40:28;92265.00;;;12.37;100.00
6198;BME280;3132;42.622;23.328;2023-05-17T01:43:16;92255.03;;;12.03;100.00
6198;BME280;3132;42.622;23.328;2023-05-17T01:46:15;92258.47;;;12.26;100.00
6198;BME280;3132;42.622;23.328;2023-05-17T01:48:49;92249.28;;;12.15;100.00
6198;BME280;3132;42.622;23.328;2023-05-17T01:51:18;92248.34;;;12.11;100.00
6198;BME280;3132;42.622;23.328;2023-05-17T01:53:53;92248.06;;;12.12;100.00
6198;BME280;3132;42.622;23.328;2023-05-17T01:56:23;92245.75;;;12.11;100.00
6198;BME280;3132;42.622;23.328;2023-05-17T01:58:51;92232.69;;;11.97;100.00
6198;BME280;3132;42.622;23.328;2023-05-17T02:01:18;92252.38;;;11.95;100.00
6198;BME280;3132;42.622;23.328;2023-05-17T02:03:48;92249.50;;;12.05;100.00
6198;BME280;3132;42.622;23.328;2023-05-17T02:06:15;92242.19;;;11.93;100.00
6198;BME280;3132;42.622;23.328;2023-05-17T02:08:40;92257.09;;;11.93;100.00
6198;BME280;3132;42.622;23.328;2023-05-17T02:11:06;92231.00;;;11.79;100.00
6198;BME280;3132;42.622;23.328;2023-05-17T02:13:31;92244.81;;;11.93;100.00
6198;BME280;3132;42.622;23.328;2023-05-17T02:16:01;92237.56;;;11.77;100.00
6198;BME280;3132;42.622;23.328;2023-05-17T02:18:26;92235.00;;;11.50;100.00
6198;BME280;3132;42.622;23.328;2023-05-17T02:20:52;92216.16;;;11.61;100.00
6198;BME280;3132;42.622;23.328;2023-05-17T02:23:18;92237.47;;;11.82;100.00
6198;BME280;3132;42.622;23.328;2023-05-17T02:25:43;92216.88;;;11.53;100.00
6198;BME280;3132;42.622;23.328;2023-05-17T02:28:09;92218.03;;;11.61;100.00
6198;BME280;3132;42.622;23.328;2023-05-17T02:30:34;92231.19;;;11.83;100.00
6198;BME280;3132;42.622;23.328;2023-05-17T02:33:00;92239.50;;;11.85;100.00
6198;BME280;3132;42.622;23.328;2023-05-17T02:35:25;92219.41;;;11.72;100.00
6198;BME280;3132;42.622;23.328;2023-05-17T02:37:51;92240.09;;;11.82;100.00
6198;BME280;3132;42.622;23.328;2023-05-17T02:40:16;92220.66;;;11.61;100.00
6198;BME280;3132;42.622;23.328;2023-05-17T02:42:42;92236.13;;;11.71;100.00
6198;BME280;3132;42.622;23.328;2023-05-17T02:45:07;92239.78;;;11.83;100.00
6198;BME280;3132;42.622;23.328;2023-05-17T02:47:33;92246.69;;;11.79;100.00
6198;BME280;3132;42.622;23.328;2023-05-17T02:49:58;92226.84;;;11.51;100.00
6198;BME280;3132;42.622;23.328;2023-05-17T02:52:24;92261.31;;;11.53;100.00
6198;BME280;3132;42.622;23.328;2023-05-17T02:54:49;92241.75;;;11.51;100.00
6198;BME280;3132;42.622;23.328;2023-05-17T02:57:15;92256.47;;;11.60;100.00
6198;BME280;3132;42.622;23.328;2023-05-17T02:59:41;92269.47;;;11.65;100.00
6198;BME280;3132;42.622;23.328;2023-05-17T03:02:06;92263.44;;;11.51;100.00
6198;BME280;3132;42.622;23.328;2023-05-17T03:04:32;92279.53;;;11.72;100.00
6198;BME280;3132;42.622;23.328;2023-05-17T03:06:57;92272.25;;;11.55;100.00
6198;BME280;3132;42.622;23.328;2023-05-17T03:09:23;92270.41;;;11.56;100.00
6198;BME280;3132;42.622;23.328;2023-05-17T03:11:48;92284.66;;;11.63;100.00
6198;BME280;3132;42.622;23.328;2023-05-17T03:14:14;92287.06;;;11.60;100.00
6198;BME280;3132;42.622;23.328;2023-05-17T03:16:40;92284.97;;;11.34;100.00
6198;BME280;3132;42.622;23.328;2023-05-17T03:19:06;92295.78;;;11.42;100.00
6198;BME280;3132;42.622;23.328;2023-05-17T03:21:31;92299.66;;;11.58;100.00
6198;BME280;3132;42.622;23.328;2023-05-17T03:23:56;92289.97;;;11.45;100.00
6198;BME280;3132;42.622;23.328;2023-05-17T03:26:22;92292.69;;;11.39;100.00
6198;BME280;3132;42.622;23.328;2023-05-17T03:28:48;92291.16;;;11.66;100.00
6198;BME280;3132;42.622;23.328;2023-05-17T03:31:14;92295.22;;;11.72;100.00
6198;BME280;3132;42.622;23.328;2023-05-17T03:33:39;92282.63;;;11.74;100.00
6198;BME280;3132;42.622;23.328;2023-05-17T03:36:05;92280.00;;;11.74;100.00
6198;BME280;3132;42.622;23.328;2023-05-17T03:38:31;92297.28;;;12.10;100.00
6198;BME280;3132;42.622;23.328;2023-05-17T03:40:58;92294.38;;;12.12;100.00
6198;BME280;3132;42.622;23.328;2023-05-17T03:43:23;92278.59;;;12.03;100.00
6198;BME280;3132;42.622;23.328;2023-05-17T03:45:49;92303.44;;;12.28;100.00
6198;BME280;3132;42.622;23.328;2023-05-17T03:48:14;92298.75;;;12.38;100.00
6198;BME280;3132;42.622;23.328;2023-05-17T03:50:40;92281.72;;;12.27;100.00
6198;BME280;3132;42.622;23.328;2023-05-17T03:53:06;92296.78;;;12.44;100.00
6198;BME280;3132;42.622;23.328;2023-05-17T03:55:31;92298.50;;;12.48;100.00
6198;BME280;3132;42.622;23.328;2023-05-17T03:57:56;92297.19;;;12.15;100.00
6198;BME280;3132;42.622;23.328;2023-05-17T04:00:22;92303.63;;;12.53;100.00
6198;BME280;3132;42.622;23.328;2023-05-17T04:02:49;92301.53;;;12.64;100.00
6198;BME280;3132;42.622;23.328;2023-05-17T04:05:15;92297.13;;;12.95;100.00
6198;BME280;3132;42.622;23.328;2023-05-17T04:07:41;92305.47;;;13.28;100.00
6198;BME280;3132;42.622;23.328;2023-05-17T04:10:07;92291.88;;;13.56;100.00
6198;BME280;3132;42.622;23.328;2023-05-17T04:12:33;92293.94;;;13.76;100.00
6198;BME280;3132;42.622;23.328;2023-05-17T04:14:59;92292.91;;;14.03;100.00
6198;BME280;3132;42.622;23.328;2023-05-17T04:17:25;92271.84;;;13.60;100.00
6198;BME280;3132;42.622;23.328;2023-05-17T04:19:50;92284.34;;;14.54;100.00
6198;BME280;3132;42.622;23.328;2023-05-17T04:22:15;92295.06;;;15.12;100.00
6198;BME280;3132;42.622;23.328;2023-05-17T04:24:41;92301.44;;;15.11;100.00
6198;BME280;3132;42.622;23.328;2023-05-17T04:27:06;92297.59;;;14.83;100.00
6198;BME280;3132;42.622;23.328;2023-05-17T04:29:32;92295.13;;;14.35;100.00
6198;BME280;3132;42.622;23.328;2023-05-17T04:31:58;92306.88;;;14.72;100.00
6198;BME280;3132;42.622;23.328;2023-05-17T04:34:23;92291.44;;;13.63;100.00
6198;BME280;3132;42.622;23.328;2023-05-17T04:36:49;92295.09;;;13.53;100.00
6198;BME280;3132;42.622;23.328;2023-05-17T04:39:15;92291.94;;;13.73;100.00
6198;BME280;3132;42.622;23.328;2023-05-17T04:41:41;92289.50;;;13.94;100.00
6198;BME280;3132;42.622;23.328;2023-05-17T04:44:07;92291.13;;;14.37;100.00
6198;BME280;3132;42.622;23.328;2023-05-17T04:46:32;92270.38;;;14.79;100.00
6198;BME280;3132;42.622;23.328;2023-05-17T04:48:58;92310.47;;;15.85;98.86
6198;BME280;3132;42.622;23.328;2023-05-17T04:51:24;92311.72;;;16.37;92.47
6198;BME280;3132;42.622;23.328;2023-05-17T04:53:51;92297.44;;;16.47;91.94
6198;BME280;3132;42.622;23.328;2023-05-17T04:56:17;92314.09;;;16.92;90.09
6198;BME280;3132;42.622;23.328;2023-05-17T04:58:42;92311.03;;;16.90;89.21
6198;BME280;3132;42.622;23.328;2023-05-17T05:01:08;92304.34;;;17.04;86.15
6198;BME280;3132;42.622;23.328;2023-05-17T05:03:33;92301.59;;;17.33;83.90
6198;BME280;3132;42.622;23.328;2023-05-17T05:05:59;92307.09;;;17.28;83.81
6198;BME280;3132;42.622;23.328;2023-05-17T05:08:24;92312.06;;;17.09;84.25
6198;BME280;3132;42.622;23.328;2023-05-17T05:10:49;92331.47;;;17.58;83.05
6198;BME280;3132;42.622;23.328;2023-05-17T05:13:15;92329.84;;;17.78;83.16
6198;BME280;3132;42.622;23.328;2023-05-17T05:15:41;92328.09;;;17.94;79.56
6198;BME280;3132;42.622;23.328;2023-05-17T05:18:06;92333.63;;;18.49;78.47
6198;BME280;3132;42.622;23.328;2023-05-17T05:20:32;92337.16;;;18.41;77.95
6198;BME280;3132;42.622;23.328;2023-05-17T05:22:58;92328.78;;;18.39;78.80
6198;BME280;3132;42.622;23.328;2023-05-17T05:25:25;92335.81;;;18.47;78.36
6198;BME280;3132;42.622;23.328;2023-05-17T05:27:50;92335.88;;;19.02;76.15
6198;BME280;3132;42.622;23.328;2023-05-17T05:30:16;92336.69;;;19.73;73.51
6198;BME280;3132;42.622;23.328;2023-05-17T05:32:47;92340.47;;;20.34;71.68
6198;BME280;3132;42.622;23.328;2023-05-17T05:35:13;92344.84;;;20.27;71.85
6198;BME280;3132;42.622;23.328;2023-05-17T05:37:38;92345.16;;;19.94;70.28
6198;BME280;3132;42.622;23.328;2023-05-17T05:40:04;92339.00;;;20.87;68.00
6198;BME280;3132;42.622;23.328;2023-05-17T05:42:29;92348.47;;;20.88;68.16
6198;BME280;3132;42.622;23.328;2023-05-17T05:44:55;92358.03;;;22.07;63.72
6198;BME280;3132;42.622;23.328;2023-05-17T05:47:20;92368.00;;;23.14;59.54
6198;BME280;3132;42.622;23.328;2023-05-17T05:49:46;92362.09;;;24.81;53.79
6198;BME280;3132;42.622;23.328;2023-05-17T05:52:11;92353.13;;;25.14;52.59
6198;BME280;3132;42.622;23.328;2023-05-17T05:54:36;92332.69;;;25.46;50.50
6198;BME280;3132;42.622;23.328;2023-05-17T05:57:02;92338.16;;;23.98;52.46
6198;BME280;3132;42.622;23.328;2023-05-17T05:59:27;92340.47;;;24.03;54.10
6198;BME280;3132;42.622;23.328;2023-05-17T06:01:53;92354.75;;;23.84;54.73
6198;BME280;3132;42.622;23.328;2023-05-17T06:04:18;92361.53;;;24.15;54.27
6198;BME280;3132;42.622;23.328;2023-05-17T06:06:44;92368.34;;;24.09;55.41
6198;BME280;3132;42.622;23.328;2023-05-17T06:09:10;92362.97;;;24.96;51.21
6198;BME280;3132;42.622;23.328;2023-05-17T06:11:36;92363.19;;;25.35;50.20
6198;BME280;3132;42.622;23.328;2023-05-17T06:14:02;92339.16;;;24.26;51.91
6198;BME280;3132;42.622;23.328;2023-05-17T06:16:28;92353.41;;;23.31;56.32
6198;BME280;3132;42.622;23.328;2023-05-17T06:18:53;92353.94;;;24.17;55.16
6198;BME280;3132;42.622;23.328;2023-05-17T06:21:19;92349.28;;;24.54;53.02
6198;BME280;3132;42.622;23.328;2023-05-17T06:23:44;92351.88;;;24.00;54.08
6198;BME280;3132;42.622;23.328;2023-05-17T06:26:09;92364.38;;;23.96;54.83
6198;BME280;3132;42.622;23.328;2023-05-17T06:28:38;92363.66;;;23.03;58.44
6198;BME280;3132;42.622;23.328;2023-05-17T06:31:03;92363.81;;;21.52;63.66
6198;BME280;3132;42.622;23.328;2023-05-17T06:33:29;92356.00;;;21.02;64.76
6198;BME280;3132;42.622;23.328;2023-05-17T06:35:54;92353.34;;;20.51;66.11
6198;BME280;3132;42.622;23.328;2023-05-17T06:38:20;92359.41;;;20.67;67.62
6198;BME280;3132;42.622;23.328;2023-05-17T06:40:46;92364.31;;;20.03;69.96
6198;BME280;3132;42.622;23.328;2023-05-17T06:43:11;92347.06;;;20.09;69.92
6198;BME280;3132;42.622;23.328;2023-05-17T06:45:37;92340.31;;;20.27;68.96
6198;BME280;3132;42.622;23.328;2023-05-17T06:48:02;92351.69;;;20.12;69.09
6198;BME280;3132;42.622;23.328;2023-05-17T06:50:27;92357.84;;;20.16;70.48
6198;BME280;3132;42.622;23.328;2023-05-17T06:52:54;92348.09;;;20.20;69.14
6198;BME280;3132;42.622;23.328;2023-05-17T06:55:19;92342.09;;;20.23;69.87
6198;BME280;3132;42.622;23.328;2023-05-17T06:57:45;92335.13;;;20.15;69.37
6198;BME280;3132;42.622;23.328;2023-05-17T07:00:11;92346.78;;;20.30;68.97
6198;BME280;3132;42.622;23.328;2023-05-17T07:02:37;92353.69;;;20.50;69.73
6198;BME280;3132;42.622;23.328;2023-05-17T07:05:04;92349.75;;;20.59;69.45
6198;BME280;3132;42.622;23.328;2023-05-17T07:07:30;92345.88;;;20.22;70.06
6198;BME280;3132;42.622;23.328;2023-05-17T07:09:55;92352.44;;;20.44;70.62
6198;BME280;3132;42.622;23.328;2023-05-17T07:12:21;92363.91;;;20.48;71.32
6198;BME280;3132;42.622;23.328;2023-05-17T07:14:46;92370.84;;;20.21;70.75
6198;BME280;3132;42.622;23.328;2023-05-17T07:17:12;92365.78;;;20.32;71.33
6198;BME280;3132;42.622;23.328;2023-05-17T07:19:37;92366.28;;;20.06;71.37
6198;BME280;3132;42.622;23.328;2023-05-17T07:22:03;92365.75;;;19.70;71.66
6198;BME280;3132;42.622;23.328;2023-05-17T07:24:28;92353.19;;;19.82;70.44
6198;BME280;3132;42.622;23.328;2023-05-17T07:26:54;92368.53;;;19.61;71.78
6198;BME280;3132;42.622;23.328;2023-05-17T07:29:19;92363.91;;;19.58;72.18
6198;BME280;3132;42.622;23.328;2023-05-17T07:31:45;92371.09;;;19.30;72.04
6198;BME280;3132;42.622;23.328;2023-05-17T07:34:13;92370.69;;;19.16;75.80
6198;BME280;3132;42.622;23.328;2023-05-17T07:36:38;92366.47;;;19.39;73.50
6198;BME280;3132;42.622;23.328;2023-05-17T07:39:04;92379.78;;;19.03;75.10
6198;BME280;3132;42.622;23.328;2023-05-17T07:41:30;92376.88;;;19.48;74.43
6198;BME280;3132;42.622;23.328;2023-05-17T07:43:56;92383.88;;;19.83;73.28
6198;BME280;3132;42.622;23.328;2023-05-17T07:46:22;92363.69;;;19.79;73.55
6198;BME280;3132;42.622;23.328;2023-05-17T07:48:47;92386.28;;;19.45;76.33
6198;BME280;3132;42.622;23.328;2023-05-17T07:51:12;92352.94;;;19.44;76.04
6198;BME280;3132;42.622;23.328;2023-05-17T07:53:38;92380.47;;;19.83;73.58
6198;BME280;3132;42.622;23.328;2023-05-17T07:56:03;92382.50;;;20.05;74.17
6198;BME280;3132;42.622;23.328;2023-05-17T07:58:29;92388.00;;;19.96;72.96
6198;BME280;3132;42.622;23.328;2023-05-17T08:00:55;92378.31;;;19.88;72.33
6198;BME280;3132;42.622;23.328;2023-05-17T08:03:20;92379.81;;;19.58;74.98
6198;BME280;3132;42.622;23.328;2023-05-17T08:05:45;92378.41;;;19.49;74.78
6198;BME280;3132;42.622;23.328;2023-05-17T08:08:11;92377.50;;;19.57;74.81
6198;BME280;3132;42.622;23.328;2023-05-17T08:10:36;92381.25;;;19.56;75.30
6198;BME280;3132;42.622;23.328;2023-05-17T08:13:02;92379.06;;;19.58;74.25
6198;BME280;3132;42.622;23.328;2023-05-17T08:15:29;92381.28;;;19.71;73.94
6198;BME280;3132;42.622;23.328;2023-05-17T08:17:54;92357.09;;;19.57;73.53
6198;BME280;3132;42.622;23.328;2023-05-17T08:20:20;92376.28;;;20.13;73.60
6198;BME280;3132;42.622;23.328;2023-05-17T08:22:46;92374.94;;;20.34;72.21
6198;BME280;3132;42.622;23.328;2023-05-17T08:25:11;92374.94;;;20.34;69.79
6198;BME280;3132;42.622;23.328;2023-05-17T08:27:37;92373.25;;;20.26;71.08
6198;BME280;3132;42.622;23.328;2023-05-17T08:30:02;92368.78;;;20.30;71.41
6198;BME280;3132;42.622;23.328;2023-05-17T08:32:28;92352.03;;;19.95;71.06
6198;BME280;3132;42.622;23.328;2023-05-17T08:34:54;92373.50;;;20.21;71.26
6198;BME280;3132;42.622;23.328;2023-05-17T08:37:20;92375.78;;;20.38;71.31
6198;BME280;3132;42.622;23.328;2023-05-17T08:39:45;92387.25;;;20.42;71.98
6198;BME280;3132;42.622;23.328;2023-05-17T08:42:13;92381.66;;;20.63;69.72
6198;BME280;3132;42.622;23.328;2023-05-17T08:44:40;92388.47;;;20.29;70.25
6198;BME280;3132;42.622;23.328;2023-05-17T08:47:09;92359.88;;;20.07;70.12
6198;BME280;3132;42.622;23.328;2023-05-17T08:49:36;92375.63;;;20.31;71.68
6198;BME280;3132;42.622;23.328;2023-05-17T08:52:02;92369.13;;;20.13;71.97
6198;BME280;3132;42.622;23.328;2023-05-17T08:54:34;92360.91;;;19.87;73.70
6198;BME280;3132;42.622;23.328;2023-05-17T08:57:01;92370.38;;;19.88;71.82
6198;BME280;3132;42.622;23.328;2023-05-17T08:59:29;92373.53;;;19.23;75.60
6198;BME280;3132;42.622;23.328;2023-05-17T09:01:58;92374.00;;;18.73;76.11
6198;BME280;3132;42.622;23.328;2023-05-17T09:04:23;92356.31;;;19.01;76.70
6198;BME280;3132;42.622;23.328;2023-05-17T09:06:49;92375.16;;;19.40;75.55
6198;BME280;3132;42.622;23.328;2023-05-17T09:09:15;92375.25;;;19.86;74.07
6198;BME280;3132;42.622;23.328;2023-05-17T09:11:40;92375.63;;;20.31;72.56
6198;BME280;3132;42.622;23.328;2023-05-17T09:14:06;92332.25;;;20.08;71.89
6198;BME280;3132;42.622;23.328;2023-05-17T09:16:33;92369.19;;;19.86;73.29
6198;BME280;3132;42.622;23.328;2023-05-17T09:18:59;92363.91;;;20.01;73.25
6198;BME280;3132;42.622;23.328;2023-05-17T09:21:26;92365.38;;;20.14;72.51
6198;BME280;3132;42.622;23.328;2023-05-17T09:23:53;92371.19;;;20.35;72.90
6198;BME280;3132;42.622;23.328;2023-05-17T09:26:20;92371.34;;;20.42;70.86
6198;BME280;3132;42.622;23.328;2023-05-17T09:28:47;92373.84;;;20.35;70.55
6198;BME280;3132;42.622;23.328;2023-05-17T09:31:15;92377.66;;;20.53;69.79
6198;BME280;3132;42.622;23.328;2023-05-17T09:33:48;92383.91;;;20.45;69.86
6198;BME280;3132;42.622;23.328;2023-05-17T09:36:19;92376.22;;;20.56;70.68
6198;BME280;3132;42.622;23.328;2023-05-17T09:38:58;92382.94;;;20.69;70.60
6198;BME280;3132;42.622;23.328;2023-05-17T09:41:29;92372.81;;;20.40;69.48
6198;BME280;3132;42.622;23.328;2023-05-17T09:44:02;92393.78;;;20.29;69.17
6198;BME280;3132;42.622;23.328;2023-05-17T09:46:32;92385.94;;;19.90;70.70
6198;BME280;3132;42.622;23.328;2023-05-17T09:49:03;92383.81;;;19.80;72.24
6198;BME280;3132;42.622;23.328;2023-05-17T09:51:42;92377.41;;;19.96;72.85
6198;BME280;3132;42.622;23.328;2023-05-17T09:54:08;92387.00;;;20.16;71.71
6198;BME280;3132;42.622;23.328;2023-05-17T09:56:36;92382.28;;;20.41;70.99
6198;BME280;3132;42.622;23.328;2023-05-17T09:59:03;92376.56;;;20.54;70.12
6198;BME280;3132;42.622;23.328;2023-05-17T10:01:30;92376.63;;;20.42;71.91
6198;BME280;3132;42.622;23.328;2023-05-17T10:04:00;92370.06;;;20.36;72.42
6198;BME280;3132;42.622;23.328;2023-05-17T10:06:29;92364.03;;;20.55;70.45
6198;BME280;3132;42.622;23.328;2023-05-17T10:08:59;92369.63;;;20.34;70.61
6198;BME280;3132;42.622;23.328;2023-05-17T10:11:27;92338.25;;;19.90;72.06
6198;BME280;3132;42.622;23.328;2023-05-17T10:14:07;92357.09;;;19.73;73.17
6198;BME280;3132;42.622;23.328;2023-05-17T10:16:34;92347.38;;;19.77;74.54
6198;BME280;3132;42.622;23.328;2023-05-17T10:19:01;92333.03;;;19.78;74.92
6198;BME280;3132;42.622;23.328;2023-05-17T10:21:29;92317.13;;;19.62;75.24
6198;BME280;3132;42.622;23.328;2023-05-17T10:23:55;92322.66;;;19.57;74.87
6198;BME280;3132;42.622;23.328;2023-05-17T10:26:21;92317.19;;;19.50;75.92
6198;BME280;3132;42.622;23.328;2023-05-17T10:28:48;92281.34;;;19.25;74.07
6198;BME280;3132;42.622;23.328;2023-05-17T10:31:16;92309.06;;;19.43;74.37
6198;BME280;3132;42.622;23.328;2023-05-17T10:33:45;92292.72;;;19.41;72.75
6198;BME280;3132;42.622;23.328;2023-05-17T10:36:13;92287.78;;;19.12;74.68
6198;BME280;3132;42.622;23.328;2023-05-17T10:38:41;92284.59;;;18.91;75.21
6198;BME280;3132;42.622;23.328;2023-05-17T10:41:07;92274.13;;;18.55;77.81
6198;BME280;3132;42.622;23.328;2023-05-17T10:43:33;92267.88;;;18.75;74.89
6198;BME280;3132;42.622;23.328;2023-05-17T10:46:01;92246.94;;;18.97;74.19
6198;BME280;3132;42.622;23.328;2023-05-17T10:48:27;92253.63;;;19.07;73.51
6198;BME280;3132;42.622;23.328;2023-05-17T10:50:55;92241.63;;;19.25;73.14
6198;BME280;3132;42.622;23.328;2023-05-17T10:53:20;92235.34;;;19.45;73.47
6198;BME280;3132;42.622;23.328;2023-05-17T10:55:46;92229.63;;;19.28;75.10
6198;BME280;3132;42.622;23.328;2023-05-17T11:00:40;92215.56;;;19.27;72.84
6198;BME280;3132;42.622;23.328;2023-05-17T11:03:11;92208.59;;;19.19;74.43
6198;BME280;3132;42.622;23.328;2023-05-17T11:05:40;92213.84;;;19.47;74.10
6198;BME280;3132;42.622;23.328;2023-05-17T11:08:17;92213.03;;;19.62;73.40
6198;BME280;3132;42.622;23.328;2023-05-17T11:11:08;92213.31;;;19.57;74.09
6198;BME280;3132;42.622;23.328;2023-05-17T11:13:51;92218.69;;;19.45;74.58
6198;BME280;3132;42.622;23.328;2023-05-17T11:16:27;92225.59;;;19.49;74.73
6198;BME280;3132;42.622;23.328;2023-05-17T11:18:54;92201.06;;;19.21;74.01
6198;BME280;3132;42.622;23.328;2023-05-17T11:21:21;92243.81;;;19.51;74.20
6198;BME280;3132;42.622;23.328;2023-05-17T11:23:47;92255.09;;;19.63;74.10
6198;BME280;3132;42.622;23.328;2023-05-17T11:26:20;92250.38;;;19.57;73.18
6198;BME280;3132;42.622;23.328;2023-05-17T11:28:45;92275.34;;;19.71;73.99
6198;BME280;3132;42.622;23.328;2023-05-17T11:31:11;92275.66;;;19.39;75.70
6198;BME280;3132;42.622;23.328;2023-05-17T11:33:43;92284.13;;;19.16;78.51
6198;BME280;3132;42.622;23.328;2023-05-17T11:36:19;92296.84;;;19.11;77.30
6198;BME280;3132;42.622;23.328;2023-05-17T11:38:51;92299.38;;;19.35;76.69
6198;BME280;3132;42.622;23.328;2023-05-17T11:41:36;92297.97;;;19.26;77.42
6198;BME280;3132;42.622;23.328;2023-05-17T11:44:02;92301.50;;;18.74;79.35
6198;BME280;3132;42.622;23.328;2023-05-17T11:46:29;92304.31;;;18.30;82.28
6198;BME280;3132;42.622;23.328;2023-05-17T11:48:56;92312.47;;;18.49;81.16
6198;BME280;3132;42.622;23.328;2023-05-17T11:51:22;92301.09;;;18.60;80.36
6198;BME280;3132;42.622;23.328;2023-05-17T11:53:48;92305.75;;;18.51;79.96
6198;BME280;3132;42.622;23.328;2023-05-17T11:56:14;92308.75;;;18.02;80.99
6198;BME280;3132;42.622;23.328;2023-05-17T11:58:40;92312.91;;;18.03;81.42
6198;BME280;3132;42.622;23.328;2023-05-17T12:01:06;92318.84;;;18.12;81.62
6198;BME280;3132;42.622;23.328;2023-05-17T12:03:33;92267.81;;;17.96;79.70
6198;BME280;3132;42.622;23.328;2023-05-17T12:08:34;92310.25;;;18.51;78.88
6198;BME280;3132;42.622;23.328;2023-05-17T12:11:00;92314.59;;;18.71;78.72
6198;BME280;3132;42.622;23.328;2023-05-17T12:13:28;92313.97;;;18.74;76.74
6198;BME280;3132;42.622;23.328;2023-05-17T12:15:58;92317.91;;;18.80;76.58
6198;BME280;3132;42.622;23.328;2023-05-17T12:18:41;92304.03;;;18.71;75.91
6198;BME280;3132;42.622;23.328;2023-05-17T12:21:08;92303.53;;;18.29;77.41
6198;BME280;3132;42.622;23.328;2023-05-17T12:23:41;92306.19;;;18.17;79.20
6198;BME280;3132;42.622;23.328;2023-05-17T12:26:18;92299.69;;;18.27;78.62
6198;BME280;3132;42.622;23.328;2023-05-17T12:28:45;92311.13;;;18.31;78.35
6198;BME280;3132;42.622;23.328;2023-05-17T12:31:19;92304.34;;;18.18;78.53
6198;BME280;3132;42.622;23.328;2023-05-17T12:33:45;92291.34;;;18.13;77.69
6198;BME280;3132;42.622;23.328;2023-05-17T12:36:12;92299.03;;;18.42;76.96
6198;BME280;3132;42.622;23.328;2023-05-17T12:38:40;92274.69;;;18.24;77.51
6198;BME280;3132;42.622;23.328;2023-05-17T12:41:10;92284.47;;;18.60;76.19
6198;BME280;3132;42.622;23.328;2023-05-17T12:43:37;92298.13;;;18.50;76.52
6198;BME280;3132;42.622;23.328;2023-05-17T12:46:12;92298.47;;;18.36;77.90
6198;BME280;3132;42.622;23.328;2023-05-17T12:48:41;92274.63;;;17.97;78.51
6198;BME280;3132;42.622;23.328;2023-05-17T12:51:15;92279.69;;;18.02;78.79
6198;BME280;3132;42.622;23.328;2023-05-17T12:53:49;92291.69;;;18.11;79.46
6198;BME280;3132;42.622;23.328;2023-05-17T12:56:17;92292.44;;;18.12;79.91
6198;BME280;3132;42.622;23.328;2023-05-17T12:58:47;92287.81;;;18.21;79.68
6198;BME280;3132;42.622;23.328;2023-05-17T13:01:34;92294.59;;;18.34;79.80
6198;BME280;3132;42.622;23.328;2023-05-17T13:04:01;92281.41;;;18.46;77.49
6198;BME280;3132;42.622;23.328;2023-05-17T13:06:27;92289.28;;;18.70;77.32
6198;BME280;3132;42.622;23.328;2023-05-17T13:08:59;92282.69;;;18.64;77.14
6198;BME280;3132;42.622;23.328;2023-05-17T13:11:26;92288.69;;;18.76;77.79
6198;BME280;3132;42.622;23.328;2023-05-17T13:13:51;92269.31;;;18.21;77.99
6198;BME280;3132;42.622;23.328;2023-05-17T13:16:28;92284.69;;;18.31;78.33
6198;BME280;3132;42.622;23.328;2023-05-17T13:18:54;92282.94;;;18.23;79.21
6198;BME280;3132;42.622;23.328;2023-05-17T13:21:20;92288.28;;;17.99;80.99